sensor_id;sensor_type;location;lat;lon;timestamp;P1;durP1;ratioP1;P2;durP2;ratioP2
71238;SDS011;61342;51.442;7.370;2023-04-16T00:00:55;26.50;;;17.33;;
71238;SDS011;61342;51.442;7.370;2023-04-16T00:01:56;24.27;;;17.00;;
71238;SDS011;61342;51.442;7.370;2023-04-16T00:02:57;26.00;;;17.03;;
71238;SDS011;61342;51.442;7.370;2023-04-16T00:03:57;27.47;;;17.40;;
71238;SDS011;61342;51.442;7.370;2023-04-16T00:04:58;28.10;;;17.83;;
71238;SDS011;61342;51.442;7.370;2023-04-16T00:05:58;25.30;;;17.27;;
71238;SDS011;61342;51.442;7.370;2023-04-16T00:06:58;26.10;;;17.77;;
71238;SDS011;61342;51.442;7.370;2023-04-16T00:07:59;32.33;;;19.17;;
71238;SDS011;61342;51.442;7.370;2023-04-16T00:08:59;26.23;;;18.90;;
71238;SDS011;61342;51.442;7.370;2023-04-16T00:10:00;27.40;;;18.13;;
71238;SDS011;61342;51.442;7.370;2023-04-16T00:11:00;23.43;;;17.43;;
71238;SDS011;61342;51.442;7.370;2023-04-16T00:12:01;27.53;;;17.27;;
71238;SDS011;61342;51.442;7.370;2023-04-16T00:13:02;25.33;;;17.37;;
71238;SDS011;61342;51.442;7.370;2023-04-16T00:14:02;27.00;;;18.80;;
71238;SDS011;61342;51.442;7.370;2023-04-16T00:15:03;29.13;;;19.23;;
71238;SDS011;61342;51.442;7.370;2023-04-16T00:16:03;28.40;;;17.87;;
71238;SDS011;61342;51.442;7.370;2023-04-16T00:17:04;26.33;;;17.60;;
71238;SDS011;61342;51.442;7.370;2023-04-16T00:18:04;28.77;;;18.37;;
71238;SDS011;61342;51.442;7.370;2023-04-16T00:19:05;27.83;;;17.93;;
71238;SDS011;61342;51.442;7.370;2023-04-16T00:20:05;30.07;;;18.73;;
71238;SDS011;61342;51.442;7.370;2023-04-16T00:21:07;29.03;;;19.10;;
71238;SDS011;61342;51.442;7.370;2023-04-16T00:22:08;27.33;;;18.30;;
71238;SDS011;61342;51.442;7.370;2023-04-16T00:23:08;26.80;;;18.63;;
71238;SDS011;61342;51.442;7.370;2023-04-16T00:24:08;30.93;;;19.80;;
71238;SDS011;61342;51.442;7.370;2023-04-16T00:25:09;25.50;;;18.40;;
71238;SDS011;61342;51.442;7.370;2023-04-16T00:26:09;25.53;;;18.00;;
71238;SDS011;61342;51.442;7.370;2023-04-16T00:27:10;32.20;;;18.43;;
71238;SDS011;61342;51.442;7.370;2023-04-16T00:28:10;24.47;;;18.17;;
71238;SDS011;61342;51.442;7.370;2023-04-16T00:29:11;29.10;;;19.60;;
71238;SDS011;61342;51.442;7.370;2023-04-16T00:30:11;30.43;;;19.37;;
71238;SDS011;61342;51.442;7.370;2023-04-16T00:31:12;29.30;;;18.87;;
71238;SDS011;61342;51.442;7.370;2023-04-16T00:32:12;31.83;;;18.17;;
71238;SDS011;61342;51.442;7.370;2023-04-16T00:33:13;32.37;;;18.97;;
71238;SDS011;61342;51.442;7.370;2023-04-16T00:34:13;29.90;;;18.20;;
71238;SDS011;61342;51.442;7.370;2023-04-16T00:35:13;27.43;;;17.80;;
71238;SDS011;61342;51.442;7.370;2023-04-16T00:36:14;28.00;;;18.53;;
71238;SDS011;61342;51.442;7.370;2023-04-16T00:37:14;33.60;;;19.10;;
71238;SDS011;61342;51.442;7.370;2023-04-16T00:38:15;28.10;;;18.07;;
71238;SDS011;61342;51.442;7.370;2023-04-16T00:39:15;30.63;;;17.27;;
71238;SDS011;61342;51.442;7.370;2023-04-16T00:40:16;32.17;;;18.53;;
71238;SDS011;61342;51.442;7.370;2023-04-16T00:41:16;28.90;;;18.50;;
71238;SDS011;61342;51.442;7.370;2023-04-16T00:42:16;29.43;;;17.47;;
71238;SDS011;61342;51.442;7.370;2023-04-16T00:43:21;27.83;;;18.43;;
71238;SDS011;61342;51.442;7.370;2023-04-16T00:44:23;29.40;;;19.37;;
71238;SDS011;61342;51.442;7.370;2023-04-16T00:45:24;29.40;;;18.53;;
71238;SDS011;61342;51.442;7.370;2023-04-16T00:46:24;27.43;;;18.23;;
71238;SDS011;61342;51.442;7.370;2023-04-16T00:47:25;27.17;;;18.40;;
71238;SDS011;61342;51.442;7.370;2023-04-16T00:48:26;23.87;;;18.00;;
71238;SDS011;61342;51.442;7.370;2023-04-16T00:49:27;26.57;;;18.07;;
71238;SDS011;61342;51.442;7.370;2023-04-16T00:50:28;27.23;;;17.73;;
71238;SDS011;61342;51.442;7.370;2023-04-16T00:51:29;25.40;;;17.67;;
71238;SDS011;61342;51.442;7.370;2023-04-16T00:52:31;29.43;;;18.77;;
71238;SDS011;61342;51.442;7.370;2023-04-16T00:53:32;27.40;;;18.10;;
71238;SDS011;61342;51.442;7.370;2023-04-16T00:54:33;29.23;;;18.00;;
71238;SDS011;61342;51.442;7.370;2023-04-16T00:55:33;29.03;;;18.87;;
71238;SDS011;61342;51.442;7.370;2023-04-16T00:56:34;28.97;;;18.60;;
71238;SDS011;61342;51.442;7.370;2023-04-16T00:57:35;25.63;;;18.30;;
71238;SDS011;61342;51.442;7.370;2023-04-16T00:58:35;27.80;;;18.73;;
71238;SDS011;61342;51.442;7.370;2023-04-16T00:59:35;29.60;;;17.83;;
71238;SDS011;61342;51.442;7.370;2023-04-16T01:00:36;30.33;;;18.37;;
71238;SDS011;61342;51.442;7.370;2023-04-16T01:01:36;24.73;;;16.80;;
71238;SDS011;61342;51.442;7.370;2023-04-16T01:02:37;26.97;;;17.77;;
71238;SDS011;61342;51.442;7.370;2023-04-16T01:03:38;25.07;;;17.13;;
71238;SDS011;61342;51.442;7.370;2023-04-16T01:04:42;25.80;;;17.70;;
71238;SDS011;61342;51.442;7.370;2023-04-16T01:05:43;25.63;;;17.37;;
71238;SDS011;61342;51.442;7.370;2023-04-16T01:06:44;24.97;;;17.67;;
71238;SDS011;61342;51.442;7.370;2023-04-16T01:07:45;23.97;;;16.83;;
71238;SDS011;61342;51.442;7.370;2023-04-16T01:08:45;24.50;;;18.10;;
71238;SDS011;61342;51.442;7.370;2023-04-16T01:09:47;27.97;;;17.83;;
71238;SDS011;61342;51.442;7.370;2023-04-16T01:10:47;23.43;;;16.77;;
71238;SDS011;61342;51.442;7.370;2023-04-16T01:11:48;21.60;;;16.07;;
71238;SDS011;61342;51.442;7.370;2023-04-16T01:12:48;26.17;;;16.97;;
71238;SDS011;61342;51.442;7.370;2023-04-16T01:13:48;22.27;;;15.73;;
71238;SDS011;61342;51.442;7.370;2023-04-16T01:14:49;23.70;;;17.43;;
71238;SDS011;61342;51.442;7.370;2023-04-16T01:15:49;21.63;;;16.80;;
71238;SDS011;61342;51.442;7.370;2023-04-16T01:16:50;22.47;;;17.03;;
71238;SDS011;61342;51.442;7.370;2023-04-16T01:17:50;26.90;;;17.17;;
71238;SDS011;61342;51.442;7.370;2023-04-16T01:18:51;24.73;;;17.07;;
71238;SDS011;61342;51.442;7.370;2023-04-16T01:19:51;21.70;;;16.30;;
71238;SDS011;61342;51.442;7.370;2023-04-16T01:20:52;22.77;;;16.13;;
71238;SDS011;61342;51.442;7.370;2023-04-16T01:21:52;26.87;;;17.53;;
71238;SDS011;61342;51.442;7.370;2023-04-16T01:22:52;25.00;;;17.53;;
71238;SDS011;61342;51.442;7.370;2023-04-16T01:23:53;21.50;;;16.80;;
71238;SDS011;61342;51.442;7.370;2023-04-16T01:24:53;23.67;;;16.87;;
71238;SDS011;61342;51.442;7.370;2023-04-16T01:25:53;26.80;;;17.17;;
71238;SDS011;61342;51.442;7.370;2023-04-16T01:26:53;27.43;;;16.77;;
71238;SDS011;61342;51.442;7.370;2023-04-16T01:27:54;28.70;;;17.97;;
71238;SDS011;61342;51.442;7.370;2023-04-16T01:28:56;25.93;;;17.33;;
71238;SDS011;61342;51.442;7.370;2023-04-16T01:29:56;23.90;;;17.27;;
71238;SDS011;61342;51.442;7.370;2023-04-16T01:30:57;22.03;;;16.33;;
71238;SDS011;61342;51.442;7.370;2023-04-16T01:31:57;25.77;;;17.70;;
71238;SDS011;61342;51.442;7.370;2023-04-16T01:32:57;31.10;;;17.73;;
71238;SDS011;61342;51.442;7.370;2023-04-16T01:33:58;24.50;;;18.20;;
71238;SDS011;61342;51.442;7.370;2023-04-16T01:34:58;25.20;;;17.07;;
71238;SDS011;61342;51.442;7.370;2023-04-16T01:35:58;24.33;;;17.83;;
71238;SDS011;61342;51.442;7.370;2023-04-16T01:36:59;27.17;;;18.50;;
71238;SDS011;61342;51.442;7.370;2023-04-16T01:37:59;23.83;;;18.13;;
71238;SDS011;61342;51.442;7.370;2023-04-16T01:38:59;25.30;;;17.73;;
71238;SDS011;61342;51.442;7.370;2023-04-16T01:40:02;26.67;;;18.37;;
71238;SDS011;61342;51.442;7.370;2023-04-16T01:41:03;30.07;;;17.80;;
71238;SDS011;61342;51.442;7.370;2023-04-16T01:42:03;24.43;;;17.73;;
71238;SDS011;61342;51.442;7.370;2023-04-16T01:43:04;27.83;;;18.93;;
71238;SDS011;61342;51.442;7.370;2023-04-16T01:44:04;27.77;;;17.50;;
71238;SDS011;61342;51.442;7.370;2023-04-16T01:45:05;26.57;;;17.40;;
71238;SDS011;61342;51.442;7.370;2023-04-16T01:47:28;27.97;;;18.57;;
71238;SDS011;61342;51.442;7.370;2023-04-16T01:48:28;24.80;;;17.87;;
71238;SDS011;61342;51.442;7.370;2023-04-16T01:49:29;34.67;;;19.37;;
71238;SDS011;61342;51.442;7.370;2023-04-16T01:50:29;27.07;;;18.37;;
71238;SDS011;61342;51.442;7.370;2023-04-16T01:51:30;24.27;;;17.43;;
71238;SDS011;61342;51.442;7.370;2023-04-16T01:52:31;24.90;;;18.00;;
71238;SDS011;61342;51.442;7.370;2023-04-16T01:53:31;27.40;;;19.10;;
71238;SDS011;61342;51.442;7.370;2023-04-16T01:54:31;28.87;;;18.70;;
71238;SDS011;61342;51.442;7.370;2023-04-16T01:55:32;26.20;;;18.50;;
71238;SDS011;61342;51.442;7.370;2023-04-16T01:56:33;26.50;;;18.33;;
71238;SDS011;61342;51.442;7.370;2023-04-16T01:57:33;26.97;;;18.30;;
71238;SDS011;61342;51.442;7.370;2023-04-16T01:58:34;26.80;;;19.90;;
71238;SDS011;61342;51.442;7.370;2023-04-16T01:59:34;28.67;;;18.97;;
71238;SDS011;61342;51.442;7.370;2023-04-16T02:00:35;26.60;;;19.17;;
71238;SDS011;61342;51.442;7.370;2023-04-16T02:01:35;25.57;;;18.23;;
71238;SDS011;61342;51.442;7.370;2023-04-16T02:02:36;27.40;;;19.00;;
71238;SDS011;61342;51.442;7.370;2023-04-16T02:03:36;29.73;;;19.40;;
71238;SDS011;61342;51.442;7.370;2023-04-16T02:04:37;30.67;;;19.07;;
71238;SDS011;61342;51.442;7.370;2023-04-16T02:05:39;26.87;;;18.77;;
71238;SDS011;61342;51.442;7.370;2023-04-16T02:06:40;26.70;;;18.00;;
71238;SDS011;61342;51.442;7.370;2023-04-16T02:07:40;30.50;;;19.60;;
71238;SDS011;61342;51.442;7.370;2023-04-16T02:08:40;30.00;;;19.30;;
71238;SDS011;61342;51.442;7.370;2023-04-16T02:09:41;28.93;;;19.23;;
71238;SDS011;61342;51.442;7.370;2023-04-16T02:10:41;34.53;;;18.93;;
71238;SDS011;61342;51.442;7.370;2023-04-16T02:11:44;28.17;;;20.27;;
71238;SDS011;61342;51.442;7.370;2023-04-16T02:12:44;34.27;;;19.17;;
71238;SDS011;61342;51.442;7.370;2023-04-16T02:13:45;29.97;;;19.13;;
71238;SDS011;61342;51.442;7.370;2023-04-16T02:14:45;27.60;;;19.13;;
71238;SDS011;61342;51.442;7.370;2023-04-16T02:15:46;29.63;;;19.87;;
71238;SDS011;61342;51.442;7.370;2023-04-16T02:16:48;32.60;;;19.30;;
71238;SDS011;61342;51.442;7.370;2023-04-16T02:17:48;27.97;;;19.10;;
71238;SDS011;61342;51.442;7.370;2023-04-16T02:18:52;28.53;;;19.63;;
71238;SDS011;61342;51.442;7.370;2023-04-16T02:19:53;28.47;;;19.03;;
71238;SDS011;61342;51.442;7.370;2023-04-16T02:20:53;33.10;;;20.73;;
71238;SDS011;61342;51.442;7.370;2023-04-16T02:21:56;24.97;;;18.20;;
71238;SDS011;61342;51.442;7.370;2023-04-16T02:22:56;26.13;;;19.43;;
71238;SDS011;61342;51.442;7.370;2023-04-16T02:23:57;28.97;;;19.67;;
71238;SDS011;61342;51.442;7.370;2023-04-16T02:24:57;28.87;;;19.00;;
71238;SDS011;61342;51.442;7.370;2023-04-16T02:25:58;30.73;;;19.47;;
71238;SDS011;61342;51.442;7.370;2023-04-16T02:26:58;32.13;;;20.50;;
71238;SDS011;61342;51.442;7.370;2023-04-16T02:27:58;28.23;;;19.50;;
71238;SDS011;61342;51.442;7.370;2023-04-16T02:28:58;27.50;;;20.00;;
71238;SDS011;61342;51.442;7.370;2023-04-16T02:29:59;30.53;;;20.63;;
71238;SDS011;61342;51.442;7.370;2023-04-16T02:30:59;30.93;;;20.63;;
71238;SDS011;61342;51.442;7.370;2023-04-16T02:32:00;28.37;;;19.90;;
71238;SDS011;61342;51.442;7.370;2023-04-16T02:33:00;28.90;;;19.73;;
71238;SDS011;61342;51.442;7.370;2023-04-16T02:34:02;30.73;;;18.73;;
71238;SDS011;61342;51.442;7.370;2023-04-16T02:35:03;32.60;;;20.53;;
71238;SDS011;61342;51.442;7.370;2023-04-16T02:36:04;28.53;;;19.70;;
71238;SDS011;61342;51.442;7.370;2023-04-16T02:37:05;30.73;;;19.87;;
71238;SDS011;61342;51.442;7.370;2023-04-16T02:38:05;30.73;;;20.20;;
71238;SDS011;61342;51.442;7.370;2023-04-16T02:39:06;30.00;;;19.70;;
71238;SDS011;61342;51.442;7.370;2023-04-16T02:40:07;27.93;;;20.17;;
71238;SDS011;61342;51.442;7.370;2023-04-16T02:41:08;29.37;;;20.93;;
71238;SDS011;61342;51.442;7.370;2023-04-16T02:42:08;29.53;;;19.70;;
71238;SDS011;61342;51.442;7.370;2023-04-16T02:43:08;29.57;;;19.07;;
71238;SDS011;61342;51.442;7.370;2023-04-16T02:44:09;30.50;;;20.80;;
71238;SDS011;61342;51.442;7.370;2023-04-16T02:45:09;25.43;;;18.77;;
71238;SDS011;61342;51.442;7.370;2023-04-16T02:46:10;30.37;;;19.23;;
71238;SDS011;61342;51.442;7.370;2023-04-16T02:47:11;26.30;;;19.50;;
71238;SDS011;61342;51.442;7.370;2023-04-16T02:48:11;31.37;;;20.37;;
71238;SDS011;61342;51.442;7.370;2023-04-16T02:49:12;27.97;;;19.40;;
71238;SDS011;61342;51.442;7.370;2023-04-16T02:50:12;25.00;;;19.33;;
71238;SDS011;61342;51.442;7.370;2023-04-16T02:51:13;31.03;;;20.00;;
71238;SDS011;61342;51.442;7.370;2023-04-16T02:52:13;30.07;;;19.80;;
71238;SDS011;61342;51.442;7.370;2023-04-16T02:53:13;28.77;;;20.30;;
71238;SDS011;61342;51.442;7.370;2023-04-16T02:54:14;26.80;;;19.20;;
71238;SDS011;61342;51.442;7.370;2023-04-16T02:55:14;27.40;;;18.33;;
71238;SDS011;61342;51.442;7.370;2023-04-16T02:56:15;27.77;;;18.97;;
71238;SDS011;61342;51.442;7.370;2023-04-16T02:57:15;32.37;;;19.90;;
71238;SDS011;61342;51.442;7.370;2023-04-16T02:58:15;29.93;;;19.37;;
71238;SDS011;61342;51.442;7.370;2023-04-16T02:59:15;30.03;;;19.30;;
71238;SDS011;61342;51.442;7.370;2023-04-16T03:00:16;27.37;;;19.70;;
71238;SDS011;61342;51.442;7.370;2023-04-16T03:01:16;28.20;;;19.87;;
71238;SDS011;61342;51.442;7.370;2023-04-16T03:02:17;28.87;;;19.63;;
71238;SDS011;61342;51.442;7.370;2023-04-16T03:03:17;28.67;;;19.60;;
71238;SDS011;61342;51.442;7.370;2023-04-16T03:04:18;29.53;;;20.20;;
71238;SDS011;61342;51.442;7.370;2023-04-16T03:05:18;28.60;;;20.20;;
71238;SDS011;61342;51.442;7.370;2023-04-16T03:06:18;32.00;;;20.10;;
71238;SDS011;61342;51.442;7.370;2023-04-16T03:07:19;31.07;;;20.70;;
71238;SDS011;61342;51.442;7.370;2023-04-16T03:08:20;28.50;;;19.50;;
71238;SDS011;61342;51.442;7.370;2023-04-16T03:09:20;27.47;;;20.03;;
71238;SDS011;61342;51.442;7.370;2023-04-16T03:10:20;28.70;;;20.57;;
71238;SDS011;61342;51.442;7.370;2023-04-16T03:11:21;34.57;;;21.53;;
71238;SDS011;61342;51.442;7.370;2023-04-16T03:12:21;29.20;;;19.37;;
71238;SDS011;61342;51.442;7.370;2023-04-16T03:13:22;31.47;;;20.27;;
71238;SDS011;61342;51.442;7.370;2023-04-16T03:14:22;30.67;;;20.87;;
71238;SDS011;61342;51.442;7.370;2023-04-16T03:15:22;30.30;;;21.13;;
71238;SDS011;61342;51.442;7.370;2023-04-16T03:16:26;29.37;;;20.07;;
71238;SDS011;61342;51.442;7.370;2023-04-16T03:17:27;32.57;;;20.37;;
71238;SDS011;61342;51.442;7.370;2023-04-16T03:18:27;27.20;;;19.23;;
71238;SDS011;61342;51.442;7.370;2023-04-16T03:19:27;26.03;;;19.13;;
71238;SDS011;61342;51.442;7.370;2023-04-16T03:20:28;30.30;;;20.60;;
71238;SDS011;61342;51.442;7.370;2023-04-16T03:21:28;25.47;;;19.53;;
71238;SDS011;61342;51.442;7.370;2023-04-16T03:22:29;31.63;;;19.90;;
71238;SDS011;61342;51.442;7.370;2023-04-16T03:23:29;28.17;;;19.43;;
71238;SDS011;61342;51.442;7.370;2023-04-16T03:24:29;35.00;;;21.67;;
71238;SDS011;61342;51.442;7.370;2023-04-16T03:25:30;27.97;;;20.90;;
71238;SDS011;61342;51.442;7.370;2023-04-16T03:26:30;26.17;;;20.00;;
71238;SDS011;61342;51.442;7.370;2023-04-16T03:27:31;31.70;;;21.90;;
71238;SDS011;61342;51.442;7.370;2023-04-16T03:28:31;28.97;;;20.40;;
71238;SDS011;61342;51.442;7.370;2023-04-16T03:29:31;30.27;;;21.00;;
71238;SDS011;61342;51.442;7.370;2023-04-16T03:30:32;27.67;;;19.37;;
71238;SDS011;61342;51.442;7.370;2023-04-16T03:31:32;30.40;;;19.83;;
71238;SDS011;61342;51.442;7.370;2023-04-16T03:32:33;28.57;;;19.67;;
71238;SDS011;61342;51.442;7.370;2023-04-16T03:33:33;27.53;;;19.50;;
71238;SDS011;61342;51.442;7.370;2023-04-16T03:34:33;30.63;;;20.37;;
71238;SDS011;61342;51.442;7.370;2023-04-16T03:35:35;29.57;;;18.93;;
71238;SDS011;61342;51.442;7.370;2023-04-16T03:36:36;29.30;;;20.70;;
71238;SDS011;61342;51.442;7.370;2023-04-16T03:37:36;31.83;;;20.93;;
71238;SDS011;61342;51.442;7.370;2023-04-16T03:38:36;29.57;;;20.83;;
71238;SDS011;61342;51.442;7.370;2023-04-16T03:39:37;26.83;;;20.57;;
71238;SDS011;61342;51.442;7.370;2023-04-16T03:40:37;31.87;;;20.57;;
71238;SDS011;61342;51.442;7.370;2023-04-16T03:41:38;31.90;;;21.00;;
71238;SDS011;61342;51.442;7.370;2023-04-16T03:42:38;31.67;;;19.93;;
71238;SDS011;61342;51.442;7.370;2023-04-16T03:43:38;29.67;;;20.53;;
71238;SDS011;61342;51.442;7.370;2023-04-16T03:44:39;30.77;;;20.87;;
71238;SDS011;61342;51.442;7.370;2023-04-16T03:45:45;29.60;;;21.17;;
71238;SDS011;61342;51.442;7.370;2023-04-16T03:46:46;29.40;;;20.37;;
71238;SDS011;61342;51.442;7.370;2023-04-16T03:47:46;28.67;;;20.80;;
71238;SDS011;61342;51.442;7.370;2023-04-16T03:48:51;29.47;;;19.80;;
71238;SDS011;61342;51.442;7.370;2023-04-16T03:49:51;30.47;;;19.80;;
71238;SDS011;61342;51.442;7.370;2023-04-16T03:50:51;32.10;;;21.17;;
71238;SDS011;61342;51.442;7.370;2023-04-16T03:51:52;28.93;;;20.63;;
71238;SDS011;61342;51.442;7.370;2023-04-16T03:52:52;31.77;;;20.03;;
71238;SDS011;61342;51.442;7.370;2023-04-16T03:53:52;31.57;;;20.70;;
71238;SDS011;61342;51.442;7.370;2023-04-16T03:54:53;29.67;;;19.77;;
71238;SDS011;61342;51.442;7.370;2023-04-16T03:55:53;29.83;;;20.43;;
71238;SDS011;61342;51.442;7.370;2023-04-16T03:56:53;30.23;;;20.50;;
71238;SDS011;61342;51.442;7.370;2023-04-16T03:57:54;29.00;;;19.53;;
71238;SDS011;61342;51.442;7.370;2023-04-16T03:58:55;30.70;;;21.57;;
71238;SDS011;61342;51.442;7.370;2023-04-16T03:59:55;29.83;;;21.07;;
71238;SDS011;61342;51.442;7.370;2023-04-16T04:00:55;31.10;;;21.13;;
71238;SDS011;61342;51.442;7.370;2023-04-16T04:01:56;29.87;;;21.67;;
71238;SDS011;61342;51.442;7.370;2023-04-16T04:02:56;32.73;;;22.27;;
71238;SDS011;61342;51.442;7.370;2023-04-16T04:03:56;30.73;;;21.13;;
71238;SDS011;61342;51.442;7.370;2023-04-16T04:04:57;29.10;;;20.90;;
71238;SDS011;61342;51.442;7.370;2023-04-16T04:05:57;31.23;;;20.80;;
71238;SDS011;61342;51.442;7.370;2023-04-16T04:06:57;37.13;;;21.77;;
71238;SDS011;61342;51.442;7.370;2023-04-16T04:07:58;31.00;;;21.73;;
71238;SDS011;61342;51.442;7.370;2023-04-16T04:08:58;32.40;;;21.47;;
71238;SDS011;61342;51.442;7.370;2023-04-16T04:09:58;30.97;;;21.17;;
71238;SDS011;61342;51.442;7.370;2023-04-16T04:10:59;37.97;;;22.87;;
71238;SDS011;61342;51.442;7.370;2023-04-16T04:11:59;32.27;;;22.23;;
71238;SDS011;61342;51.442;7.370;2023-04-16T04:13:01;37.53;;;23.40;;
71238;SDS011;61342;51.442;7.370;2023-04-16T04:14:02;31.97;;;22.00;;
71238;SDS011;61342;51.442;7.370;2023-04-16T04:15:04;32.70;;;21.73;;
71238;SDS011;61342;51.442;7.370;2023-04-16T04:16:05;33.20;;;22.30;;
71238;SDS011;61342;51.442;7.370;2023-04-16T04:17:06;36.17;;;21.97;;
71238;SDS011;61342;51.442;7.370;2023-04-16T04:18:07;34.30;;;22.03;;
71238;SDS011;61342;51.442;7.370;2023-04-16T04:19:07;35.10;;;23.30;;
71238;SDS011;61342;51.442;7.370;2023-04-16T04:20:07;35.37;;;21.40;;
71238;SDS011;61342;51.442;7.370;2023-04-16T04:21:08;38.20;;;22.00;;
71238;SDS011;61342;51.442;7.370;2023-04-16T04:22:09;36.07;;;21.50;;
71238;SDS011;61342;51.442;7.370;2023-04-16T04:23:09;35.87;;;21.40;;
71238;SDS011;61342;51.442;7.370;2023-04-16T04:24:10;35.83;;;21.93;;
71238;SDS011;61342;51.442;7.370;2023-04-16T04:25:10;29.07;;;21.67;;
71238;SDS011;61342;51.442;7.370;2023-04-16T04:26:10;35.80;;;22.37;;
71238;SDS011;61342;51.442;7.370;2023-04-16T04:27:11;34.07;;;22.27;;
71238;SDS011;61342;51.442;7.370;2023-04-16T04:28:11;36.03;;;21.63;;
71238;SDS011;61342;51.442;7.370;2023-04-16T04:29:12;35.53;;;22.43;;
71238;SDS011;61342;51.442;7.370;2023-04-16T04:30:12;33.43;;;22.03;;
71238;SDS011;61342;51.442;7.370;2023-04-16T04:31:13;35.90;;;22.20;;
71238;SDS011;61342;51.442;7.370;2023-04-16T04:32:13;32.17;;;21.27;;
71238;SDS011;61342;51.442;7.370;2023-04-16T04:33:13;31.47;;;21.57;;
71238;SDS011;61342;51.442;7.370;2023-04-16T04:34:14;40.00;;;23.37;;
71238;SDS011;61342;51.442;7.370;2023-04-16T04:35:15;35.83;;;22.40;;
71238;SDS011;61342;51.442;7.370;2023-04-16T04:36:15;34.37;;;22.23;;
71238;SDS011;61342;51.442;7.370;2023-04-16T04:37:15;33.97;;;22.97;;
71238;SDS011;61342;51.442;7.370;2023-04-16T04:38:16;32.90;;;22.30;;
71238;SDS011;61342;51.442;7.370;2023-04-16T04:39:21;38.03;;;23.10;;
71238;SDS011;61342;51.442;7.370;2023-04-16T04:40:21;35.47;;;22.30;;
71238;SDS011;61342;51.442;7.370;2023-04-16T04:41:21;38.47;;;23.73;;
71238;SDS011;61342;51.442;7.370;2023-04-16T04:42:22;38.73;;;23.77;;
71238;SDS011;61342;51.442;7.370;2023-04-16T04:43:22;36.03;;;23.23;;
71238;SDS011;61342;51.442;7.370;2023-04-16T04:44:23;36.97;;;23.00;;
71238;SDS011;61342;51.442;7.370;2023-04-16T04:45:23;36.13;;;23.77;;
71238;SDS011;61342;51.442;7.370;2023-04-16T04:46:24;37.70;;;23.77;;
71238;SDS011;61342;51.442;7.370;2023-04-16T04:47:24;36.47;;;23.73;;
71238;SDS011;61342;51.442;7.370;2023-04-16T04:48:25;38.13;;;22.90;;
71238;SDS011;61342;51.442;7.370;2023-04-16T04:49:26;36.87;;;23.23;;
71238;SDS011;61342;51.442;7.370;2023-04-16T04:50:26;38.63;;;24.07;;
71238;SDS011;61342;51.442;7.370;2023-04-16T04:51:27;39.47;;;23.67;;
71238;SDS011;61342;51.442;7.370;2023-04-16T04:52:27;38.93;;;23.33;;
71238;SDS011;61342;51.442;7.370;2023-04-16T04:53:28;39.00;;;25.43;;
71238;SDS011;61342;51.442;7.370;2023-04-16T04:54:29;39.73;;;23.93;;
71238;SDS011;61342;51.442;7.370;2023-04-16T04:55:30;38.10;;;25.43;;
71238;SDS011;61342;51.442;7.370;2023-04-16T04:56:30;40.73;;;24.83;;
71238;SDS011;61342;51.442;7.370;2023-04-16T04:57:30;38.20;;;24.70;;
71238;SDS011;61342;51.442;7.370;2023-04-16T04:58:31;40.13;;;25.23;;
71238;SDS011;61342;51.442;7.370;2023-04-16T04:59:31;36.30;;;23.90;;
71238;SDS011;61342;51.442;7.370;2023-04-16T05:00:32;39.20;;;23.87;;
71238;SDS011;61342;51.442;7.370;2023-04-16T05:01:33;37.77;;;23.83;;
71238;SDS011;61342;51.442;7.370;2023-04-16T05:02:33;38.83;;;24.17;;
71238;SDS011;61342;51.442;7.370;2023-04-16T05:03:33;43.00;;;24.77;;
71238;SDS011;61342;51.442;7.370;2023-04-16T05:04:34;41.13;;;24.90;;
71238;SDS011;61342;51.442;7.370;2023-04-16T05:05:34;39.43;;;25.13;;
71238;SDS011;61342;51.442;7.370;2023-04-16T05:06:34;40.37;;;26.03;;
71238;SDS011;61342;51.442;7.370;2023-04-16T05:07:35;43.97;;;24.77;;
71238;SDS011;61342;51.442;7.370;2023-04-16T05:08:35;39.07;;;24.40;;
71238;SDS011;61342;51.442;7.370;2023-04-16T05:09:36;34.53;;;22.87;;
71238;SDS011;61342;51.442;7.370;2023-04-16T05:10:36;36.07;;;24.43;;
71238;SDS011;61342;51.442;7.370;2023-04-16T05:11:37;39.83;;;24.60;;
71238;SDS011;61342;51.442;7.370;2023-04-16T05:12:38;40.50;;;24.77;;
71238;SDS011;61342;51.442;7.370;2023-04-16T05:13:39;38.73;;;26.07;;
71238;SDS011;61342;51.442;7.370;2023-04-16T05:14:39;43.50;;;25.53;;
71238;SDS011;61342;51.442;7.370;2023-04-16T05:15:39;38.57;;;25.00;;
71238;SDS011;61342;51.442;7.370;2023-04-16T05:16:41;48.37;;;26.33;;
71238;SDS011;61342;51.442;7.370;2023-04-16T05:17:41;39.40;;;25.23;;
71238;SDS011;61342;51.442;7.370;2023-04-16T05:18:42;40.40;;;24.97;;
71238;SDS011;61342;51.442;7.370;2023-04-16T05:19:42;39.23;;;25.70;;
71238;SDS011;61342;51.442;7.370;2023-04-16T05:20:42;39.77;;;24.67;;
71238;SDS011;61342;51.442;7.370;2023-04-16T05:21:43;44.47;;;27.37;;
71238;SDS011;61342;51.442;7.370;2023-04-16T05:22:43;44.77;;;26.00;;
71238;SDS011;61342;51.442;7.370;2023-04-16T05:23:43;43.30;;;26.30;;
71238;SDS011;61342;51.442;7.370;2023-04-16T05:24:43;38.47;;;25.30;;
71238;SDS011;61342;51.442;7.370;2023-04-16T05:25:44;37.97;;;23.00;;
71238;SDS011;61342;51.442;7.370;2023-04-16T05:26:45;44.83;;;25.70;;
71238;SDS011;61342;51.442;7.370;2023-04-16T05:27:45;44.30;;;25.40;;
71238;SDS011;61342;51.442;7.370;2023-04-16T05:28:45;44.23;;;26.10;;
71238;SDS011;61342;51.442;7.370;2023-04-16T05:29:46;41.40;;;27.00;;
71238;SDS011;61342;51.442;7.370;2023-04-16T05:30:46;43.73;;;25.63;;
71238;SDS011;61342;51.442;7.370;2023-04-16T05:31:46;40.97;;;25.57;;
71238;SDS011;61342;51.442;7.370;2023-04-16T05:32:47;40.17;;;25.50;;
71238;SDS011;61342;51.442;7.370;2023-04-16T05:33:47;44.37;;;27.40;;
71238;SDS011;61342;51.442;7.370;2023-04-16T05:34:47;48.40;;;26.13;;
71238;SDS011;61342;51.442;7.370;2023-04-16T05:35:48;39.17;;;25.50;;
71238;SDS011;61342;51.442;7.370;2023-04-16T05:36:48;39.33;;;25.63;;
71238;SDS011;61342;51.442;7.370;2023-04-16T05:37:48;40.07;;;25.57;;
71238;SDS011;61342;51.442;7.370;2023-04-16T05:38:49;36.90;;;25.17;;
71238;SDS011;61342;51.442;7.370;2023-04-16T05:39:49;41.37;;;27.37;;
71238;SDS011;61342;51.442;7.370;2023-04-16T05:40:50;44.10;;;25.80;;
71238;SDS011;61342;51.442;7.370;2023-04-16T05:41:50;41.07;;;25.93;;
71238;SDS011;61342;51.442;7.370;2023-04-16T05:42:50;36.73;;;25.63;;
71238;SDS011;61342;51.442;7.370;2023-04-16T05:43:51;39.20;;;25.27;;
71238;SDS011;61342;51.442;7.370;2023-04-16T05:44:51;44.50;;;26.13;;
71238;SDS011;61342;51.442;7.370;2023-04-16T05:45:51;40.30;;;25.93;;
71238;SDS011;61342;51.442;7.370;2023-04-16T05:46:52;43.33;;;25.33;;
71238;SDS011;61342;51.442;7.370;2023-04-16T05:47:52;39.40;;;25.47;;
71238;SDS011;61342;51.442;7.370;2023-04-16T05:48:52;39.47;;;26.20;;
71238;SDS011;61342;51.442;7.370;2023-04-16T05:49:53;42.87;;;25.50;;
71238;SDS011;61342;51.442;7.370;2023-04-16T05:50:53;40.97;;;26.23;;
71238;SDS011;61342;51.442;7.370;2023-04-16T05:51:53;41.80;;;26.33;;
71238;SDS011;61342;51.442;7.370;2023-04-16T05:52:54;40.33;;;26.30;;
71238;SDS011;61342;51.442;7.370;2023-04-16T05:53:54;39.73;;;25.87;;
71238;SDS011;61342;51.442;7.370;2023-04-16T05:54:54;38.13;;;24.67;;
71238;SDS011;61342;51.442;7.370;2023-04-16T05:55:55;39.50;;;26.57;;